createdAt,value
2018-12-21T00:00:10.112Z,81.46
2018-12-21T00:00:41.256Z,81.95
2018-12-21T00:01:12.368Z,81.89
2018-12-21T00:01:43.485Z,82.02
2018-12-21T00:02:14.597Z,81.79
2018-12-21T00:02:45.701Z,81.89
2018-12-21T00:03:16.801Z,82.25
2018-12-21T00:03:47.913Z,82.27
2018-12-21T00:04:19.040Z,81.90
2018-12-21T00:04:50.160Z,81.82
2018-12-21T00:05:21.270Z,81.52
2018-12-21T00:05:52.468Z,81.75
2018-12-21T00:06:23.591Z,81.79
2018-12-21T00:06:54.709Z,82.14
2018-12-21T00:07:25.818Z,82.24
2018-12-21T00:07:58.707Z,82.47
2018-12-21T00:08:30.058Z,82.86
2018-12-21T00:09:01.162Z,82.77
2018-12-21T00:09:32.260Z,82.40
2018-12-21T00:10:03.365Z,82.08
2018-12-21T00:10:34.463Z,81.93
2018-12-21T00:11:05.605Z,81.99
2018-12-21T00:11:36.718Z,82.27
2018-12-21T00:12:07.817Z,82.07
2018-12-21T00:12:38.967Z,81.74
2018-12-21T00:13:10.072Z,81.48
2018-12-21T00:13:41.175Z,81.59
2018-12-21T00:14:12.276Z,81.29
2018-12-21T00:14:43.415Z,81.54
2018-12-21T00:15:14.517Z,81.53
2018-12-21T00:15:45.638Z,81.72
2018-12-21T00:16:16.736Z,82.00
2018-12-21T00:16:47.840Z,81.74
2018-12-21T00:17:18.956Z,81.76
2018-12-21T00:17:50.056Z,82.00
2018-12-21T00:18:21.166Z,82.26
2018-12-21T00:18:52.272Z,82.50
2018-12-21T00:19:23.372Z,82.67
2018-12-21T00:19:54.484Z,82.25
2018-12-21T00:20:25.588Z,82.35
2018-12-21T00:20:56.728Z,81.97
2018-12-21T00:21:27.861Z,81.67
2018-12-21T00:21:58.974Z,81.53
2018-12-21T00:22:30.078Z,82.07
2018-12-21T00:23:01.229Z,81.86
2018-12-21T00:23:32.344Z,81.40
2018-12-21T00:24:03.450Z,81.11
2018-12-21T00:24:34.563Z,81.02
2018-12-21T00:25:05.678Z,81.04
2018-12-21T00:25:36.781Z,81.02
2018-12-21T00:26:07.893Z,80.99
2018-12-21T00:26:39.009Z,80.86
2018-12-21T00:27:10.138Z,80.91
2018-12-21T00:27:41.243Z,80.97
2018-12-21T00:28:12.447Z,81.34
2018-12-21T00:28:43.587Z,81.84
2018-12-21T00:29:14.684Z,82.09
2018-12-21T00:29:45.790Z,82.36
2018-12-21T00:30:16.957Z,81.92
2018-12-21T00:30:48.073Z,81.39
2018-12-21T00:31:19.245Z,80.86
2018-12-21T00:31:50.358Z,80.83
2018-12-21T00:32:21.505Z,80.80
2018-12-21T00:32:52.630Z,80.66
2018-12-21T00:33:23.788Z,80.78
2018-12-21T00:33:54.898Z,80.68
2018-12-21T00:34:26.012Z,81.27
2018-12-21T00:34:57.125Z,81.18
2018-12-21T00:35:28.253Z,81.23
2018-12-21T00:35:59.361Z,81.14
2018-12-21T00:36:30.503Z,80.94
2018-12-21T00:37:01.608Z,80.42
2018-12-21T00:37:32.800Z,79.64
2018-12-21T00:38:05.659Z,79.58
2018-12-21T00:38:37.013Z,79.52
2018-12-21T00:39:08.154Z,79.80
2018-12-21T00:39:39.278Z,79.59
2018-12-21T00:40:10.384Z,79.55
2018-12-21T00:40:41.497Z,79.45
2018-12-21T00:41:12.610Z,79.35
2018-12-21T00:41:43.756Z,79.16
2018-12-21T00:42:14.864Z,79.26
2018-12-21T00:42:46.093Z,79.31
2018-12-21T00:43:17.208Z,79.56
2018-12-21T00:43:48.322Z,79.55
2018-12-21T00:44:19.428Z,79.39
2018-12-21T00:44:50.787Z,79.43
2018-12-21T00:45:21.965Z,79.54
2018-12-21T00:45:53.072Z,79.97
2018-12-21T00:46:24.185Z,80.15
2018-12-21T00:46:55.336Z,80.64
2018-12-21T00:47:26.458Z,80.86
2018-12-21T00:47:57.598Z,80.67
2018-12-21T00:48:28.718Z,80.78
2018-12-21T00:48:59.824Z,80.79
2018-12-21T00:49:30.921Z,80.75
2018-12-21T00:50:02.048Z,80.79
2018-12-21T00:50:33.230Z,80.97
2018-12-21T00:51:04.328Z,81.18
2018-12-21T00:51:35.438Z,81.22
2018-12-21T00:52:06.540Z,81.28
2018-12-21T00:52:37.708Z,81.29
2018-12-21T00:53:08.842Z,81.56
2018-12-21T00:53:39.944Z,81.50
2018-12-21T00:54:11.064Z,81.73
2018-12-21T00:54:42.164Z,81.68
2018-12-21T00:55:13.260Z,81.68
2018-12-21T00:55:44.421Z,81.64
2018-12-21T00:56:15.528Z,81.84
2018-12-21T00:56:46.641Z,81.70
2018-12-21T00:57:17.745Z,81.57
2018-12-21T00:57:48.958Z,81.68
2018-12-21T00:58:20.071Z,81.80
2018-12-21T00:58:51.183Z,81.74
2018-12-21T00:59:22.295Z,81.84
2018-12-21T00:59:53.396Z,81.52
2018-12-21T01:00:24.505Z,81.49
2018-12-21T01:00:55.645Z,81.69
2018-12-21T01:01:26.788Z,81.50
2018-12-21T01:01:57.891Z,81.44
2018-12-21T01:02:28.995Z,81.59
2018-12-21T01:03:00.102Z,81.87
2018-12-21T01:03:31.210Z,81.94
2018-12-21T01:04:02.337Z,82.03
2018-12-21T01:04:33.441Z,82.28
2018-12-21T01:05:04.548Z,82.14
2018-12-21T01:05:35.660Z,81.67
2018-12-21T01:06:06.778Z,81.77
2018-12-21T01:06:37.913Z,81.45
2018-12-21T01:07:09.018Z,81.49
2018-12-21T01:07:40.119Z,82.01
2018-12-21T01:08:11.224Z,81.51
2018-12-21T01:08:42.325Z,81.35
2018-12-21T01:09:13.454Z,81.16
2018-12-21T01:09:44.568Z,81.10
2018-12-21T01:10:15.780Z,80.82
2018-12-21T01:10:46.903Z,80.66
2018-12-21T01:11:18.009Z,80.73
2018-12-21T01:11:49.116Z,80.55
2018-12-21T01:12:20.346Z,80.60
2018-12-21T01:12:51.467Z,80.72
2018-12-21T01:13:22.582Z,81.09
2018-12-21T01:13:53.700Z,81.00
2018-12-21T01:14:24.806Z,81.31
2018-12-21T01:14:55.925Z,81.30
2018-12-21T01:15:27.070Z,81.37
2018-12-21T01:15:58.171Z,81.43
2018-12-21T01:16:29.313Z,81.59
2018-12-21T01:17:00.419Z,81.25
2018-12-21T01:17:31.730Z,81.06
2018-12-21T01:18:02.844Z,81.40
2018-12-21T01:18:33.951Z,81.76
2018-12-21T01:19:05.060Z,81.56
2018-12-21T01:19:36.184Z,81.27
2018-12-21T01:20:07.379Z,80.85
2018-12-21T01:20:38.557Z,81.05
2018-12-21T01:21:09.745Z,81.14
2018-12-21T01:21:40.856Z,80.90
2018-12-21T01:22:12.016Z,80.74
2018-12-21T01:22:43.129Z,80.62
2018-12-21T01:23:14.260Z,80.62
2018-12-21T01:23:45.388Z,80.61
2018-12-21T01:24:16.493Z,80.60
2018-12-21T01:24:47.642Z,80.64
2018-12-21T01:25:18.796Z,80.92
2018-12-21T01:25:49.941Z,80.91
2018-12-21T01:26:21.064Z,81.35
2018-12-21T01:26:52.184Z,81.80
2018-12-21T01:27:23.313Z,81.83
2018-12-21T01:27:54.471Z,81.21
2018-12-21T01:28:25.570Z,80.95
2018-12-21T01:28:56.714Z,80.66
2018-12-21T01:29:27.881Z,80.33
2018-12-21T01:29:58.992Z,80.44
2018-12-21T01:30:30.096Z,80.59
2018-12-21T01:31:01.205Z,80.40
2018-12-21T01:31:32.355Z,80.84
2018-12-21T01:32:03.455Z,80.79
2018-12-21T01:32:34.560Z,80.19
2018-12-21T01:33:05.666Z,79.82
2018-12-21T01:33:36.781Z,79.66
2018-12-21T01:34:07.950Z,79.73
2018-12-21T01:34:39.069Z,79.56
2018-12-21T01:35:10.261Z,79.81
2018-12-21T01:35:41.376Z,80.35
2018-12-21T01:36:12.591Z,80.71
2018-12-21T01:36:43.717Z,80.45
2018-12-21T01:37:14.900Z,80.49
2018-12-21T01:37:46.004Z,80.54
2018-12-21T01:38:17.109Z,80.61
2018-12-21T01:38:48.208Z,80.46
2018-12-21T01:39:19.309Z,80.79
2018-12-21T01:39:50.444Z,80.65
2018-12-21T01:40:21.556Z,80.76
2018-12-21T01:40:52.655Z,80.93
2018-12-21T01:41:23.759Z,81.16
2018-12-21T01:41:54.869Z,81.41
2018-12-21T01:42:25.963Z,81.61
2018-12-21T01:42:57.079Z,81.28
2018-12-21T01:43:28.208Z,81.47
2018-12-21T01:43:59.299Z,81.25
2018-12-21T01:44:30.433Z,81.59
2018-12-21T01:45:01.527Z,81.82
2018-12-21T01:45:32.631Z,82.00
2018-12-21T01:46:03.735Z,81.96
2018-12-21T01:46:34.848Z,82.06
2018-12-21T01:47:05.948Z,82.23
2018-12-21T01:47:37.075Z,82.34
2018-12-21T01:48:08.172Z,82.12
2018-12-21T01:48:39.281Z,81.91
2018-12-21T01:49:10.440Z,82.12
2018-12-21T01:49:41.546Z,81.96
2018-12-21T01:50:12.656Z,81.90
2018-12-21T01:50:43.766Z,81.99
2018-12-21T01:51:14.999Z,82.03
2018-12-21T01:51:47.162Z,81.79
2018-12-21T01:52:18.689Z,82.03
2018-12-21T01:52:49.806Z,82.29
2018-12-21T01:53:20.918Z,82.21
2018-12-21T01:53:52.029Z,82.56
2018-12-21T01:54:23.139Z,82.74
2018-12-21T01:54:54.257Z,82.61
2018-12-21T01:55:25.394Z,82.86
2018-12-21T01:55:56.509Z,82.88
2018-12-21T01:56:27.613Z,82.94
2018-12-21T01:56:58.779Z,83.00
2018-12-21T01:57:29.902Z,83.01
2018-12-21T01:58:01.047Z,82.82
2018-12-21T01:58:32.143Z,82.76
2018-12-21T01:59:03.285Z,82.63
2018-12-21T01:59:34.393Z,82.73
2018-12-21T02:00:05.504Z,82.41
2018-12-21T02:00:36.621Z,82.35
2018-12-21T02:01:07.721Z,82.60
2018-12-21T02:01:38.826Z,82.62
2018-12-21T02:02:09.971Z,82.82
2018-12-21T02:02:41.075Z,82.84
2018-12-21T02:03:12.180Z,82.58
2018-12-21T02:03:43.281Z,82.72
2018-12-21T02:04:14.414Z,82.64
2018-12-21T02:04:45.538Z,82.50
2018-12-21T02:05:16.642Z,82.39
2018-12-21T02:05:47.750Z,82.22
2018-12-21T02:06:18.853Z,82.08
2018-12-21T02:06:49.996Z,81.83
2018-12-21T02:07:21.108Z,81.94
2018-12-21T02:07:52.212Z,81.64
2018-12-21T02:08:23.317Z,81.81
2018-12-21T02:08:54.456Z,81.63
2018-12-21T02:09:25.560Z,81.57
2018-12-21T02:09:56.670Z,81.40
2018-12-21T02:10:27.774Z,81.48
2018-12-21T02:10:58.913Z,81.58
2018-12-21T02:11:30.044Z,81.69
2018-12-21T02:12:01.149Z,81.71
2018-12-21T02:12:32.284Z,81.67
2018-12-21T02:13:03.428Z,81.44
2018-12-21T02:13:34.624Z,81.42
2018-12-21T02:14:05.726Z,81.48
2018-12-21T02:14:36.837Z,81.85
2018-12-21T02:15:07.941Z,82.13
2018-12-21T02:15:39.083Z,82.03
2018-12-21T02:16:10.185Z,82.12
2018-12-21T02:16:41.325Z,82.23
2018-12-21T02:17:12.429Z,82.21
2018-12-21T02:17:43.539Z,82.17
2018-12-21T02:18:14.669Z,82.23
2018-12-21T02:18:45.780Z,82.07
2018-12-21T02:19:16.902Z,82.43
2018-12-21T02:19:48.046Z,82.18
2018-12-21T02:20:19.154Z,82.34
2018-12-21T02:20:50.253Z,82.53
2018-12-21T02:21:21.396Z,82.78
2018-12-21T02:21:55.982Z,82.69
2018-12-21T02:22:25.668Z,82.94
2018-12-21T02:22:56.770Z,82.97
2018-12-21T02:23:27.876Z,83.30
2018-12-21T02:23:58.988Z,83.33
2018-12-21T02:24:30.094Z,83.43
2018-12-21T02:25:01.203Z,83.23
2018-12-21T02:25:32.346Z,83.10
2018-12-21T02:26:03.506Z,83.17
2018-12-21T02:26:34.708Z,83.74
2018-12-21T02:27:05.825Z,83.68
2018-12-21T02:27:36.927Z,83.54
2018-12-21T02:28:08.032Z,83.28
2018-12-21T02:28:39.163Z,83.15
2018-12-21T02:29:10.279Z,83.07
2018-12-21T02:29:41.382Z,82.55
2018-12-21T02:30:12.493Z,82.61
2018-12-21T02:30:43.603Z,83.34
2018-12-21T02:31:14.722Z,83.30
2018-12-21T02:31:45.854Z,83.16
2018-12-21T02:32:16.984Z,82.76
2018-12-21T02:32:48.214Z,82.12
2018-12-21T02:33:19.353Z,81.84
2018-12-21T02:33:50.474Z,81.93
2018-12-21T02:34:21.633Z,81.71
2018-12-21T02:34:52.757Z,81.77
2018-12-21T02:35:23.864Z,82.06
2018-12-21T02:35:54.969Z,82.16
2018-12-21T02:36:26.090Z,82.17
2018-12-21T02:36:57.205Z,82.36
2018-12-21T02:37:28.328Z,82.32
2018-12-21T02:37:59.437Z,82.26
2018-12-21T02:38:30.580Z,82.32
2018-12-21T02:39:01.695Z,82.07
2018-12-21T02:39:32.829Z,82.33
2018-12-21T02:40:03.988Z,82.65
2018-12-21T02:40:35.114Z,82.83
2018-12-21T02:41:06.301Z,82.71
2018-12-21T02:41:38.376Z,82.62
2018-12-21T02:42:09.526Z,82.40
2018-12-21T02:42:40.762Z,82.17
2018-12-21T02:43:11.882Z,82.28
2018-12-21T02:43:42.993Z,82.27
2018-12-21T02:44:14.099Z,82.21
2018-12-21T02:44:45.258Z,82.35
2018-12-21T02:45:17.557Z,82.24
2018-12-21T02:45:48.675Z,81.98
2018-12-21T02:46:19.789Z,81.83
2018-12-21T02:46:50.899Z,81.99
2018-12-21T02:47:22.014Z,81.81
2018-12-21T02:47:53.126Z,81.95
2018-12-21T02:48:24.234Z,81.93
2018-12-21T02:48:55.348Z,81.87
2018-12-21T02:49:26.472Z,82.21
2018-12-21T02:49:57.597Z,82.08
2018-12-21T02:50:28.744Z,81.92
2018-12-21T02:50:59.904Z,81.97
2018-12-21T02:51:31.003Z,81.85
2018-12-21T02:52:05.696Z,82.01
2018-12-21T02:52:35.299Z,81.95
2018-12-21T02:53:06.417Z,81.83
2018-12-21T02:53:37.529Z,81.81
2018-12-21T02:54:08.643Z,81.84
2018-12-21T02:54:39.776Z,82.01
2018-12-21T02:55:10.991Z,81.86
2018-12-21T02:55:42.149Z,82.07
2018-12-21T02:56:13.259Z,82.16
2018-12-21T02:56:44.368Z,82.21
2018-12-21T02:57:15.497Z,82.52
2018-12-21T02:57:46.606Z,82.50
2018-12-21T02:58:17.721Z,82.33
2018-12-21T02:58:48.836Z,82.47
2018-12-21T02:59:19.955Z,82.39
2018-12-21T02:59:51.075Z,82.27
2018-12-21T03:00:22.240Z,82.11
2018-12-21T03:00:53.356Z,82.33
2018-12-21T03:01:24.462Z,82.34
2018-12-21T03:01:55.587Z,82.16
2018-12-21T03:02:26.693Z,81.90
2018-12-21T03:02:57.804Z,81.87
2018-12-21T03:03:28.911Z,82.01
2018-12-21T03:04:00.017Z,82.08
2018-12-21T03:04:31.134Z,81.88
2018-12-21T03:05:02.244Z,81.96
2018-12-21T03:05:33.378Z,81.97
2018-12-21T03:06:04.489Z,81.94
2018-12-21T03:06:35.614Z,81.90
2018-12-21T03:07:06.734Z,81.89
2018-12-21T03:07:37.852Z,82.03
2018-12-21T03:08:08.972Z,81.82
2018-12-21T03:08:40.086Z,81.69
2018-12-21T03:09:11.210Z,81.59
2018-12-21T03:09:42.341Z,81.59
2018-12-21T03:10:13.464Z,81.67
2018-12-21T03:10:44.602Z,81.75
2018-12-21T03:11:54.341Z,81.51
2018-12-21T03:12:25.454Z,81.43
2018-12-21T03:12:56.572Z,81.23
2018-12-21T03:13:27.695Z,81.13
2018-12-21T03:13:58.848Z,81.27
2018-12-21T03:14:29.960Z,81.42
2018-12-21T03:15:01.067Z,81.30
2018-12-21T03:15:32.209Z,81.09
2018-12-21T03:16:03.324Z,81.09
2018-12-21T03:16:34.447Z,80.91
2018-12-21T03:17:05.559Z,80.90
2018-12-21T03:17:36.674Z,81.03
2018-12-21T03:18:07.782Z,80.95
2018-12-21T03:18:38.902Z,80.76
2018-12-21T03:19:10.009Z,80.83
2018-12-21T03:19:41.128Z,80.60
2018-12-21T03:20:12.256Z,80.52
2018-12-21T03:20:43.410Z,80.44
2018-12-21T03:21:14.512Z,80.64
2018-12-21T03:21:45.683Z,80.54
2018-12-21T03:22:16.786Z,80.54
2018-12-21T03:22:47.914Z,80.57
2018-12-21T03:23:19.029Z,80.55
2018-12-21T03:23:50.271Z,80.23
2018-12-21T03:24:21.390Z,80.23
2018-12-21T03:24:52.564Z,80.47
2018-12-21T03:25:23.686Z,80.68
2018-12-21T03:25:54.820Z,80.78
2018-12-21T03:26:25.991Z,81.06
2018-12-21T03:26:57.147Z,81.96
2018-12-21T03:27:28.356Z,82.70
2018-12-21T03:27:59.468Z,82.96
2018-12-21T03:28:30.645Z,82.72
2018-12-21T03:29:01.751Z,82.44
2018-12-21T03:29:32.944Z,82.32
2018-12-21T03:30:04.210Z,81.99
2018-12-21T03:30:35.301Z,81.67
2018-12-21T03:31:06.410Z,81.48
2018-12-21T03:31:37.566Z,81.55
2018-12-21T03:32:08.680Z,81.53
2018-12-21T03:32:39.796Z,81.23
2018-12-21T03:33:10.897Z,81.17
2018-12-21T03:33:42.019Z,81.01
2018-12-21T03:34:13.150Z,80.92
2018-12-21T03:34:44.294Z,80.91
2018-12-21T03:35:15.421Z,81.08
2018-12-21T03:35:46.544Z,81.17
2018-12-21T03:36:17.661Z,81.35
2018-12-21T03:36:48.780Z,81.21
2018-12-21T03:37:19.937Z,81.10
2018-12-21T03:37:51.087Z,81.08
2018-12-21T03:38:22.193Z,80.84
2018-12-21T03:38:53.332Z,80.91
2018-12-21T03:39:24.429Z,80.74
2018-12-21T03:39:55.542Z,80.58
2018-12-21T03:40:26.645Z,80.57
2018-12-21T03:40:57.752Z,80.52
2018-12-21T03:41:28.868Z,80.68
2018-12-21T03:42:00.015Z,80.64
2018-12-21T03:42:31.129Z,80.86
2018-12-21T03:43:02.284Z,80.79
2018-12-21T03:43:33.397Z,81.04
2018-12-21T03:44:04.539Z,80.99
2018-12-21T03:44:35.656Z,80.55
2018-12-21T03:45:06.808Z,80.51
2018-12-21T03:45:37.933Z,80.51
2018-12-21T03:46:09.038Z,80.66
2018-12-21T03:46:40.153Z,80.69
2018-12-21T03:47:11.261Z,80.47
2018-12-21T03:47:42.433Z,80.66
2018-12-21T03:48:13.536Z,80.73
2018-12-21T03:48:44.683Z,80.53
2018-12-21T03:49:15.834Z,80.41
2018-12-21T03:49:50.083Z,80.63
2018-12-21T03:50:21.190Z,80.46
2018-12-21T03:50:52.299Z,80.42
2018-12-21T03:51:23.408Z,80.58
2018-12-21T03:51:54.531Z,80.52
2018-12-21T03:52:25.674Z,80.37
2018-12-21T03:52:56.780Z,80.54
2018-12-21T03:53:27.883Z,80.45
2018-12-21T03:53:59.005Z,80.38
2018-12-21T03:54:30.119Z,80.33
2018-12-21T03:55:01.224Z,80.39
2018-12-21T03:55:32.361Z,80.63
2018-12-21T03:56:03.465Z,80.74
2018-12-21T03:56:34.603Z,80.93
2018-12-21T03:57:05.722Z,81.22
2018-12-21T03:57:36.837Z,81.44
2018-12-21T03:58:07.945Z,81.56
2018-12-21T03:58:39.094Z,81.51
2018-12-21T03:59:11.178Z,81.53
2018-12-21T03:59:43.335Z,81.62
2018-12-21T04:00:14.486Z,81.50
2018-12-21T04:00:45.664Z,81.76
2018-12-21T04:01:16.782Z,81.74
2018-12-21T04:01:47.897Z,81.86
2018-12-21T04:02:20.895Z,81.87
2018-12-21T04:02:52.340Z,81.97
2018-12-21T04:03:23.446Z,81.81
2018-12-21T04:03:54.600Z,81.96
2018-12-21T04:04:25.707Z,82.01
2018-12-21T04:04:56.818Z,82.07
2018-12-21T04:05:27.941Z,81.83
2018-12-21T04:05:59.050Z,81.92
2018-12-21T04:06:30.161Z,81.92
2018-12-21T04:07:01.288Z,82.02
2018-12-21T04:07:32.399Z,82.14
2018-12-21T04:08:03.502Z,82.14
2018-12-21T04:08:34.641Z,82.44
2018-12-21T04:09:05.969Z,82.71
2018-12-21T04:09:37.089Z,82.95
2018-12-21T04:10:08.209Z,83.10
2018-12-21T04:10:39.325Z,83.30
2018-12-21T04:11:10.446Z,83.44
2018-12-21T04:11:41.578Z,83.42
2018-12-21T04:12:12.810Z,83.42
2018-12-21T04:12:43.938Z,83.25
2018-12-21T04:13:15.049Z,82.90
2018-12-21T04:13:46.176Z,82.77
2018-12-21T04:14:17.342Z,82.72
2018-12-21T04:14:48.457Z,82.54
2018-12-21T04:15:19.590Z,82.44
2018-12-21T04:15:50.701Z,82.38
2018-12-21T04:16:21.839Z,82.27
2018-12-21T04:16:52.960Z,82.09
2018-12-21T04:17:24.068Z,82.20
2018-12-21T04:17:55.191Z,82.33
2018-12-21T04:18:26.344Z,82.34
2018-12-21T04:18:57.472Z,82.41
2018-12-21T04:19:28.612Z,82.41
2018-12-21T04:19:59.722Z,82.73
2018-12-21T04:20:30.886Z,82.74
2018-12-21T04:21:02.109Z,82.59
2018-12-21T04:21:33.259Z,82.59
2018-12-21T04:22:04.366Z,82.60
2018-12-21T04:22:35.477Z,82.58
2018-12-21T04:23:06.578Z,82.65
2018-12-21T04:23:37.695Z,82.60
2018-12-21T04:24:08.807Z,82.59
2018-12-21T04:24:39.911Z,82.77
2018-12-21T04:25:11.025Z,83.08
2018-12-21T04:25:42.185Z,82.96
2018-12-21T04:26:13.298Z,83.23
2018-12-21T04:26:44.416Z,83.03
2018-12-21T04:27:15.529Z,82.93
2018-12-21T04:27:46.648Z,82.98
2018-12-21T04:28:17.817Z,82.88
2018-12-21T04:28:48.920Z,82.74
2018-12-21T04:29:20.041Z,82.68
2018-12-21T04:29:51.159Z,82.63
2018-12-21T04:30:22.266Z,82.68
2018-12-21T04:30:54.549Z,82.61
2018-12-21T04:31:25.692Z,82.58
2018-12-21T04:31:56.828Z,82.73
2018-12-21T04:32:27.935Z,82.67
2018-12-21T04:32:59.044Z,82.71
2018-12-21T04:33:30.164Z,82.62
2018-12-21T04:34:01.283Z,82.54
2018-12-21T04:34:32.409Z,82.73
2018-12-21T04:35:03.544Z,82.57
2018-12-21T04:35:34.814Z,82.59
2018-12-21T04:36:05.975Z,82.81
2018-12-21T04:36:37.216Z,82.91
2018-12-21T04:37:08.332Z,82.93
2018-12-21T04:37:39.476Z,82.68
2018-12-21T04:38:10.579Z,82.35
2018-12-21T04:38:41.722Z,82.77
2018-12-21T04:39:12.933Z,82.70
2018-12-21T04:39:44.041Z,82.78
2018-12-21T04:40:15.720Z,82.76
2018-12-21T04:40:46.913Z,82.87
2018-12-21T04:41:18.074Z,82.94
2018-12-21T04:41:49.257Z,82.78
2018-12-21T04:42:20.393Z,83.10
2018-12-21T04:42:51.534Z,83.04
2018-12-21T04:43:22.633Z,83.03
2018-12-21T04:43:53.736Z,82.77
2018-12-21T04:44:24.873Z,82.76
2018-12-21T04:44:56.154Z,82.52
2018-12-21T04:45:27.355Z,82.55
2018-12-21T04:45:58.519Z,82.59
2018-12-21T04:46:29.623Z,82.61
2018-12-21T04:47:00.726Z,82.83
2018-12-21T04:47:31.883Z,82.48
2018-12-21T04:48:02.993Z,82.43
2018-12-21T04:48:36.158Z,82.40
2018-12-21T04:49:07.275Z,82.52
2018-12-21T04:49:38.397Z,82.69
2018-12-21T04:50:09.509Z,82.90
2018-12-21T04:50:40.666Z,82.67
2018-12-21T04:51:11.772Z,82.72
2018-12-21T04:51:42.880Z,82.71
2018-12-21T04:52:13.988Z,82.71
2018-12-21T04:52:45.087Z,82.91
2018-12-21T04:53:16.773Z,82.75
2018-12-21T04:53:48.664Z,82.82
2018-12-21T04:54:19.778Z,82.70
2018-12-21T04:54:50.902Z,82.77
2018-12-21T04:55:22.045Z,83.07
2018-12-21T04:55:53.144Z,82.94
2018-12-21T04:56:24.256Z,82.93
2018-12-21T04:56:55.371Z,82.91
2018-12-21T04:57:26.530Z,83.00
2018-12-21T04:57:57.648Z,83.14
2018-12-21T04:58:28.762Z,83.20
2018-12-21T04:58:59.870Z,83.36
2018-12-21T04:59:30.990Z,83.23
2018-12-21T05:00:02.231Z,83.40
2018-12-21T05:00:34.897Z,83.36
2018-12-21T05:01:06.011Z,83.37
2018-12-21T05:01:37.157Z,83.19
2018-12-21T05:02:08.333Z,83.18
2018-12-21T05:02:39.443Z,83.13
2018-12-21T05:03:10.575Z,83.12
2018-12-21T05:03:41.700Z,83.20
2018-12-21T05:04:19.700Z,83.20
2018-12-21T05:04:45.955Z,83.34
2018-12-21T05:05:17.076Z,83.36
2018-12-21T05:05:48.212Z,83.28
2018-12-21T05:06:19.338Z,83.76
2018-12-21T05:06:50.547Z,83.68
2018-12-21T05:07:21.692Z,83.76
2018-12-21T05:07:52.852Z,83.73
2018-12-21T05:08:23.966Z,83.58
2018-12-21T05:08:55.074Z,83.56
2018-12-21T05:09:26.183Z,83.53
2018-12-21T05:09:57.288Z,83.29
2018-12-21T05:10:28.394Z,83.22
2018-12-21T05:10:59.504Z,83.34
2018-12-21T05:11:30.613Z,83.37
2018-12-21T05:12:01.763Z,83.37
2018-12-21T05:12:32.868Z,83.43
2018-12-21T05:13:03.974Z,83.36
2018-12-21T05:13:35.077Z,83.67
2018-12-21T05:14:07.897Z,83.50
2018-12-21T05:14:39.351Z,83.51
2018-12-21T05:15:10.462Z,83.54
2018-12-21T05:15:41.567Z,83.36
2018-12-21T05:16:12.691Z,82.91
2018-12-21T05:16:43.799Z,82.74
2018-12-21T05:17:14.972Z,82.66
2018-12-21T05:17:46.072Z,82.66
2018-12-21T05:18:17.211Z,82.99
2018-12-21T05:18:48.348Z,82.76
2018-12-21T05:19:19.460Z,82.63
2018-12-21T05:19:50.714Z,82.94
2018-12-21T05:20:21.833Z,83.08
2018-12-21T05:20:52.953Z,83.11
2018-12-21T05:21:24.061Z,83.30
2018-12-21T05:21:55.183Z,83.39
2018-12-21T05:22:26.786Z,83.17
2018-12-21T05:22:57.945Z,83.27
2018-12-21T05:23:29.052Z,83.01
2018-12-21T05:24:00.174Z,82.87
2018-12-21T05:24:31.289Z,82.77
2018-12-21T05:25:02.387Z,82.59
2018-12-21T05:25:33.493Z,82.44
2018-12-21T05:26:04.673Z,82.35
2018-12-21T05:26:35.808Z,82.20
2018-12-21T05:27:06.921Z,82.26
2018-12-21T05:27:38.033Z,82.28
2018-12-21T05:28:09.142Z,82.23
2018-12-21T05:28:40.249Z,82.19
2018-12-21T05:29:11.377Z,82.26
2018-12-21T05:29:43.980Z,82.15
2018-12-21T05:30:15.188Z,82.16
2018-12-21T05:30:46.349Z,81.93
2018-12-21T05:31:17.481Z,81.92
2018-12-21T05:31:48.617Z,81.90
2018-12-21T05:32:19.767Z,81.93
2018-12-21T05:32:50.893Z,82.25
2018-12-21T05:33:22.003Z,82.10
2018-12-21T05:33:53.112Z,82.20
2018-12-21T05:34:24.221Z,81.90
2018-12-21T05:34:55.329Z,81.87
2018-12-21T05:35:26.481Z,81.90
2018-12-21T05:35:57.618Z,81.75
2018-12-21T05:36:28.733Z,81.58
2018-12-21T05:36:59.832Z,81.53
2018-12-21T05:37:30.943Z,81.71
2018-12-21T05:38:02.062Z,81.66
2018-12-21T05:38:33.178Z,81.71
2018-12-21T05:39:06.167Z,81.69
2018-12-21T05:39:37.321Z,81.81
2018-12-21T05:40:08.457Z,81.59
2018-12-21T05:40:40.914Z,81.66
2018-12-21T05:41:12.052Z,81.55
2018-12-21T05:41:43.162Z,81.56
2018-12-21T05:42:14.263Z,81.86
2018-12-21T05:42:45.386Z,82.09
2018-12-21T05:43:16.497Z,82.08
2018-12-21T05:43:47.636Z,82.13
2018-12-21T05:44:18.772Z,82.11
2018-12-21T05:44:50.016Z,82.38
2018-12-21T05:45:21.134Z,82.55
2018-12-21T05:45:52.258Z,82.63
2018-12-21T05:46:23.461Z,82.67
2018-12-21T05:46:56.375Z,82.71
2018-12-21T05:47:27.558Z,82.91
2018-12-21T05:47:58.673Z,83.07
2018-12-21T05:48:29.792Z,83.08
2018-12-21T05:49:00.893Z,83.12
2018-12-21T05:49:32.010Z,83.32
2018-12-21T05:50:03.134Z,83.74
2018-12-21T05:50:34.253Z,83.94
2018-12-21T05:51:05.380Z,84.10
2018-12-21T05:51:36.534Z,84.22
2018-12-21T05:52:07.648Z,84.15
2018-12-21T05:52:38.801Z,84.03
2018-12-21T05:53:10.607Z,84.11
2018-12-21T05:53:41.715Z,84.23
2018-12-21T05:54:13.978Z,84.66
2018-12-21T05:54:45.076Z,84.65
2018-12-21T05:55:16.183Z,84.87
2018-12-21T05:55:47.316Z,84.52
2018-12-21T05:56:18.423Z,84.17
2018-12-21T05:56:49.549Z,83.46
2018-12-21T05:57:20.648Z,83.08
2018-12-21T05:57:52.686Z,83.13
2018-12-21T05:58:23.838Z,82.84
2018-12-21T05:58:54.955Z,82.95
2018-12-21T05:59:26.072Z,82.75
2018-12-21T05:59:57.203Z,82.90
2018-12-21T06:00:28.329Z,83.07
2018-12-21T06:00:59.441Z,83.25
2018-12-21T06:01:30.562Z,83.29
2018-12-21T06:02:01.716Z,83.18
2018-12-21T06:02:32.820Z,83.35
2018-12-21T06:03:06.495Z,83.47
2018-12-21T06:03:44.922Z,83.30
2018-12-21T06:04:18.245Z,83.48
2018-12-21T06:04:49.411Z,83.34
2018-12-21T06:05:20.578Z,83.70
2018-12-21T06:05:51.788Z,83.89
2018-12-21T06:06:22.928Z,83.94
2018-12-21T06:06:54.044Z,84.10
2018-12-21T06:07:25.152Z,84.08
2018-12-21T06:07:56.999Z,84.08
2018-12-21T06:08:28.530Z,83.96
2018-12-21T06:08:59.833Z,84.13
2018-12-21T06:09:31.013Z,84.13
2018-12-21T06:10:02.145Z,84.12
2018-12-21T06:10:33.333Z,84.08
2018-12-21T06:11:04.452Z,84.35
2018-12-21T06:11:35.560Z,84.55
2018-12-21T06:12:06.679Z,84.75
2018-12-21T06:12:37.833Z,84.93
2018-12-21T06:13:08.986Z,85.12
2018-12-21T06:13:40.193Z,85.01
2018-12-21T06:14:11.316Z,85.03
2018-12-21T06:14:42.459Z,84.87
2018-12-21T06:15:13.560Z,84.70
2018-12-21T06:15:44.670Z,84.57
2018-12-21T06:16:15.809Z,84.39
2018-12-21T06:16:46.929Z,84.52
2018-12-21T06:17:18.035Z,84.62
2018-12-21T06:17:49.164Z,84.81
2018-12-21T06:18:20.289Z,84.87
2018-12-21T06:18:51.419Z,84.97
2018-12-21T06:19:22.523Z,84.95
2018-12-21T06:19:53.677Z,85.11
2018-12-21T06:20:24.781Z,84.87
2018-12-21T06:20:55.888Z,84.69
2018-12-21T06:21:27.001Z,85.01
2018-12-21T06:21:58.097Z,84.58
2018-12-21T06:22:29.216Z,84.43
2018-12-21T06:23:00.325Z,84.20
2018-12-21T06:23:31.438Z,84.16
2018-12-21T06:24:02.550Z,84.29
2018-12-21T06:24:33.691Z,84.31
2018-12-21T06:25:05.481Z,84.56
2018-12-21T06:25:36.588Z,84.78
2018-12-21T06:26:07.694Z,84.65
2018-12-21T06:26:40.683Z,84.55
2018-12-21T06:27:12.015Z,84.34
2018-12-21T06:27:43.138Z,84.17
2018-12-21T06:28:14.250Z,84.36
2018-12-21T06:28:45.363Z,84.21
2018-12-21T06:29:16.507Z,83.94
2018-12-21T06:29:47.648Z,83.89
2018-12-21T06:30:18.753Z,83.65
2018-12-21T06:30:49.862Z,83.47
2018-12-21T06:31:21.002Z,83.71
2018-12-21T06:31:52.152Z,83.59
2018-12-21T06:32:23.302Z,83.34
2018-12-21T06:32:54.409Z,83.60
2018-12-21T06:33:25.540Z,83.71
2018-12-21T06:33:56.672Z,83.75
2018-12-21T06:34:27.777Z,83.96
2018-12-21T06:34:58.906Z,84.11
2018-12-21T06:35:30.057Z,84.02
2018-12-21T06:36:01.163Z,84.36
2018-12-21T06:36:32.291Z,84.46
2018-12-21T06:37:03.401Z,84.52
2018-12-21T06:37:34.564Z,84.45
2018-12-21T06:38:05.736Z,84.31
2018-12-21T06:38:36.867Z,84.24
2018-12-21T06:39:07.995Z,84.24
2018-12-21T06:39:39.148Z,84.14
2018-12-21T06:40:10.875Z,84.18
2018-12-21T06:40:42.116Z,84.13
2018-12-21T06:41:13.258Z,84.20
2018-12-21T06:41:44.365Z,84.38
2018-12-21T06:42:15.494Z,84.55